Time;durP1;ratioP1;P1;durP2;ratioP2;P2;SDS_P1;SDS_P2;PMS_P1;PMS_P2;Temp;Humidity;BMP_temperature;BMP_pressure;BME280_temperature;BME280_humidity;BME280_pressure;Samples;Min_cycle;Max_cycle;Signal;HPM_P1;HPM_P2
2023/09/12 00:02:18;;;;;;;5.80;3.20;;;;;;;13.62;70.79;98931.79;105766;1254;61084;-23
2023/09/12 00:04:45;;;;;;;8.30;3.60;;;;;;;13.38;71.53;98930.54;105609;1254;61209;-24
2023/09/12 00:07:13;;;;;;;8.70;3.40;;;;;;;13.16;71.88;98927.70;105658;1254;72120;-22
2023/09/12 00:09:41;;;;;;;10.50;3.80;;;;;;;12.95;72.43;98927.52;105715;1257;73250;-21
2023/09/12 00:12:09;;;;;;;4.40;2.10;;;;;;;12.77;73.17;98928.30;105655;1254;71796;-23
2023/09/12 00:14:37;;;;;;;6.90;2.60;;;;;;;13.18;73.63;98928.75;105828;1254;61169;-23
2023/09/12 00:17:05;;;;;;;6.70;3.00;;;;;;;13.72;72.26;98922.95;105699;1267;61769;-23
2023/09/12 00:19:32;;;;;;;11.10;3.50;;;;;;;13.80;71.49;98927.08;105889;1257;72892;-23
2023/09/12 00:22:00;;;;;;;10.00;4.40;;;;;;;13.63;71.25;98925.00;105697;1260;74416;-23
2023/09/12 00:24:28;;;;;;;6.40;3.30;;;;;;;13.41;71.26;98929.17;105882;1259;72700;-23
2023/09/12 00:26:56;;;;;;;7.60;3.50;;;;;;;13.16;71.73;98926.09;105652;1259;61060;-23
2023/09/12 00:29:24;;;;;;;5.50;3.30;;;;;;;12.94;72.37;98932.05;105702;1254;61113;-23
2023/09/12 00:31:52;;;;;;;8.10;3.80;;;;;;;12.72;73.10;98935.27;105791;1257;71928;-23
2023/09/12 00:34:20;;;;;;;8.80;3.00;;;;;;;12.54;73.37;98939.02;105709;1258;72997;-23
2023/09/12 00:36:47;;;;;;;5.40;2.80;;;;;;;12.92;73.24;98941.09;105864;1258;72663;-23
2023/09/12 00:39:15;;;;;;;5.60;3.20;;;;;;;13.42;71.94;98937.81;105685;1259;61110;-23
2023/09/12 00:41:43;;;;;;;5.50;2.90;;;;;;;13.50;71.01;98937.95;105643;1259;61110;-23
2023/09/12 00:44:11;;;;;;;6.00;3.60;;;;;;;13.32;71.28;98934.58;105764;1258;71542;-23
2023/09/12 00:46:39;;;;;;;8.30;3.60;;;;;;;13.06;71.90;98933.02;105784;1257;74424;-23
2023/09/12 00:49:07;;;;;;;7.60;3.60;;;;;;;12.82;72.36;98933.65;105757;1255;72702;-23
2023/09/12 00:51:35;;;;;;;9.50;3.90;;;;;;;12.62;72.74;98937.39;105803;1254;61054;-22
2023/09/12 00:54:03;;;;;;;9.30;3.50;;;;;;;12.42;73.12;98934.11;105355;1261;61240;-22
2023/09/12 00:56:32;;;;;;;5.40;2.50;;;;;;;12.28;73.99;98940.12;105292;1263;73079;-22
2023/09/12 00:59:00;;;;;;;9.40;2.80;;;;;;;12.72;74.36;98937.66;105591;1255;74449;-23
2023/09/12 01:01:28;;;;;;;8.20;3.40;;;;;;;13.25;72.89;98934.36;105530;1260;72700;-23
2023/09/12 01:03:56;;;;;;;5.30;2.80;;;;;;;13.32;72.12;98935.43;105508;1263;61068;-23
2023/09/12 01:06:27;;;;;;;8.00;3.70;;;;;;;13.17;72.07;98935.45;105660;1258;61093;-23
2023/09/12 01:08:55;;;;;;;9.90;3.80;;;;;;;12.95;72.09;98938.77;105854;1257;71815;-24
2023/09/12 01:11:23;;;;;;;6.20;3.20;;;;;;;12.70;71.88;98935.94;105685;1258;74404;-25
2023/09/12 01:13:51;;;;;;;7.90;3.80;;;;;;;12.47;72.46;98943.93;105755;1258;72697;-24
2023/09/12 01:16:19;;;;;;;8.50;3.80;;;;;;;12.25;73.13;98941.97;105603;1260;61115;-23
2023/09/12 01:18:46;;;;;;;7.10;2.70;;;;;;;12.07;74.12;98937.75;105559;1260;61318;-23
2023/09/12 01:21:49;;;;;;;6.70;2.50;;;;;;;12.48;74.50;98939.50;105681;1260;73017;-24
2023/09/12 01:24:17;;;;;;;9.40;3.10;;;;;;;13.01;72.07;98934.70;105521;1258;72672;-23
2023/09/12 01:26:54;;;;;;;11.20;3.30;;;;;;;12.96;71.94;98932.31;105868;1255;72719;-22
2023/09/12 01:29:22;;;;;;;8.00;3.60;;;;;;;12.72;72.78;98936.33;105486;1262;61140;-22
2023/09/12 01:31:50;;;;;;;9.30;3.60;;;;;;;12.49;73.15;98937.55;105726;1259;61317;-23
2023/09/12 01:34:19;;;;;;;8.60;3.90;;;;;;;12.25;73.81;98938.08;105430;1260;73064;-24
2023/09/12 01:36:46;;;;;;;6.50;3.80;;;;;;;12.03;74.25;98937.61;105814;1257;73208;-24
2023/09/12 01:39:15;;;;;;;5.70;3.70;;;;;;;11.83;74.47;98936.76;105655;1261;72833;-23
2023/09/12 01:41:43;;;;;;;8.70;2.90;;;;;;;11.70;75.45;98935.45;105700;1253;61164;-23
2023/09/12 01:44:11;;;;;;;6.10;3.00;;;;;;;12.18;75.77;98938.50;105525;1260;61083;-24
2023/09/12 01:46:39;;;;;;;12.90;4.80;;;;;;;12.77;74.35;98932.56;105688;1252;71971;-23
2023/09/12 01:49:07;;;;;;;7.90;4.00;;;;;;;12.85;73.35;98934.58;105463;1272;73263;-23
2023/09/12 01:51:35;;;;;;;11.20;5.50;;;;;;;12.69;73.19;98938.30;105732;1257;72765;-22
2023/09/12 01:54:03;;;;;;;24.30;9.90;;;;;;;12.47;73.30;98934.02;105678;1261;61507;-22
2023/09/12 01:56:31;;;;;;;19.80;7.80;;;;;;;12.22;73.75;98937.52;105663;1261;61536;-22
2023/09/12 01:58:59;;;;;;;14.60;5.60;;;;;;;11.97;74.64;98937.80;105603;1260;72386;-22
2023/09/12 02:01:27;;;;;;;11.00;3.20;;;;;;;11.74;75.08;98934.36;105420;1264;74546;-23
2023/09/12 02:03:55;;;;;;;9.50;3.40;;;;;;;12.05;75.63;98936.59;105519;1255;72695;-22
2023/09/12 02:06:23;;;;;;;7.70;2.90;;;;;;;12.50;74.31;98937.45;105301;1261;61189;-22
2023/09/12 02:08:51;;;;;;;8.90;3.10;;;;;;;12.52;73.64;98937.10;105550;1260;61045;-22
2023/09/12 02:11:19;;;;;;;5.20;3.50;;;;;;;12.30;73.65;98938.35;105550;1260;72864;-22
2023/09/12 02:13:47;;;;;;;5.00;3.20;;;;;;;12.03;74.36;98936.55;105590;1259;73583;-22
2023/09/12 02:16:15;;;;;;;8.30;3.50;;;;;;;11.77;74.96;98940.10;105784;1257;71720;-22
2023/09/12 02:18:43;;;;;;;9.00;3.50;;;;;;;11.53;75.75;98941.27;105466;1259;61151;-22
2023/09/12 02:21:11;;;;;;;12.60;3.40;;;;;;;11.36;76.45;98939.80;105707;1259;61183;-22
2023/09/12 02:23:39;;;;;;;5.30;2.20;;;;;;;11.76;76.60;98940.83;105408;1260;73109;-22
2023/09/12 02:26:07;;;;;;;8.80;3.40;;;;;;;12.27;75.10;98941.80;105546;1254;73414;-22
2023/09/12 02:28:34;;;;;;;9.30;3.40;;;;;;;12.33;74.46;98936.88;105613;1259;72669;-23
2023/09/12 02:31:02;;;;;;;7.90;3.70;;;;;;;12.16;74.51;98937.56;105598;1255;61170;-22
2023/09/12 02:33:30;;;;;;;5.10;2.90;;;;;;;11.93;74.88;98937.65;105481;1259;61114;-22
2023/09/12 02:35:58;;;;;;;18.00;4.20;;;;;;;11.71;75.46;98939.16;105533;1257;71833;-22
2023/09/12 02:38:26;;;;;;;15.30;4.30;;;;;;;11.52;75.98;98939.27;105575;1260;74427;-22
2023/09/12 02:40:55;;;;;;;13.70;2.90;;;;;;;11.40;76.64;98942.04;105618;1260;70579;-22
2023/09/12 02:43:24;;;;;;;11.80;3.60;;;;;;;11.87;76.43;98942.95;105665;1253;61202;-22
2023/09/12 02:45:52;;;;;;;23.60;3.60;;;;;;;12.47;74.83;98943.22;105843;1258;61195;-22
2023/09/12 02:48:19;;;;;;;16.60;3.60;;;;;;;12.58;73.32;98945.03;105655;1254;73870;-22
2023/09/12 02:50:47;;;;;;;10.60;3.50;;;;;;;12.42;73.25;98945.67;105341;1269;73891;-22
2023/09/12 02:53:15;;;;;;;9.20;3.60;;;;;;;12.16;73.95;98948.67;105559;1260;71463;-22
2023/09/12 02:55:43;;;;;;;10.10;4.00;;;;;;;11.83;74.86;98946.27;105573;1260;61115;-23
2023/09/12 02:58:11;;;;;;;8.80;3.90;;;;;;;11.58;75.41;98949.02;105529;1260;61151;-22
2023/09/12 03:00:42;;;;;;;7.10;2.90;;;;;;;11.39;75.90;98945.60;105604;1259;73910;-22
2023/09/12 03:03:10;;;;;;;7.20;3.90;;;;;;;11.76;76.07;98948.84;105564;1260;74578;-24
2023/09/12 03:05:38;;;;;;;8.70;4.10;;;;;;;12.24;74.62;98949.49;105640;1260;72724;-24
2023/09/12 03:08:07;;;;;;;7.50;4.60;;;;;;;12.29;73.88;98952.73;105800;1257;61167;-23
2023/09/12 03:10:34;;;;;;;13.90;5.30;;;;;;;12.10;73.55;98951.80;105632;1254;61050;-24
2023/09/12 03:13:03;;;;;;;11.60;6.10;;;;;;;11.85;74.19;98949.94;105703;1254;73883;-23
2023/09/12 03:15:35;;;;;;;9.00;3.90;;;;;;;11.58;74.46;98950.58;105747;1260;74523;-23
2023/09/12 03:18:04;;;;;;;12.50;4.10;;;;;;;11.30;74.72;98949.19;105643;1257;72752;-23
2023/09/12 03:20:32;;;;;;;12.50;3.40;;;;;;;11.07;75.91;98948.31;105706;1270;61174;-24
2023/09/12 03:23:00;;;;;;;11.00;3.20;;;;;;;11.41;76.62;98949.05;105779;1254;61086;-24
2023/09/12 03:25:27;;;;;;;10.20;4.00;;;;;;;11.91;75.40;98948.77;105671;1254;72630;-27
2023/09/12 03:35:34;;;;;;;8.80;4.30;;;;;;;11.38;75.62;98954.73;102658;1295;600246;-23
2023/09/12 03:38:03;;;;;;;12.00;4.20;;;;;;;11.16;76.15;98957.98;104903;1266;61123;-22
2023/09/12 03:40:31;;;;;;;14.00;3.00;;;;;;;11.03;76.89;98961.67;104896;1270;61243;-23
2023/09/12 03:42:59;;;;;;;7.20;3.70;;;;;;;11.46;76.57;98962.70;104791;1270;72273;-23
2023/09/12 03:45:27;;;;;;;6.90;3.50;;;;;;;12.02;75.25;98961.05;104692;1266;74461;-23
2023/09/12 03:47:56;;;;;;;10.60;4.00;;;;;;;12.12;74.05;98961.03;104726;1269;72691;-23
2023/09/12 03:50:23;;;;;;;6.80;4.50;;;;;;;11.99;74.06;98957.98;102728;1269;2898230;-23
2023/09/12 03:52:51;;;;;;;15.20;5.60;;;;;;;11.78;74.34;98959.77;104851;1264;61151;-23
2023/09/12 03:55:19;;;;;;;10.00;5.80;;;;;;;11.55;74.65;98961.06;105145;1264;72431;-23
2023/09/12 03:57:47;;;;;;;11.80;4.90;;;;;;;11.34;75.41;98960.10;105057;1264;74414;-23
2023/09/12 04:00:15;;;;;;;5.60;3.30;;;;;;;11.18;75.93;98958.72;104869;1270;73169;-23
2023/09/12 04:02:46;;;;;;;8.50;3.40;;;;;;;11.59;75.88;98958.66;104917;1265;61285;-23
2023/09/12 04:05:15;;;;;;;12.40;3.70;;;;;;;12.13;74.73;98956.38;104924;1270;61228;-23
2023/09/12 04:07:42;;;;;;;9.90;4.10;;;;;;;12.27;74.09;98958.29;105136;1265;71854;-23
2023/09/12 04:10:10;;;;;;;12.00;4.60;;;;;;;12.17;73.65;98960.01;104906;1270;73482;-23
2023/09/12 04:12:38;;;;;;;8.70;4.00;;;;;;;12.03;74.03;98959.75;105115;1267;72718;-23
2023/09/12 04:15:06;;;;;;;16.00;4.90;;;;;;;11.87;74.09;98958.33;104831;1262;61068;-23
2023/09/12 04:17:34;;;;;;;9.30;4.30;;;;;;;11.74;74.39;98955.64;104757;1264;61077;-23
2023/09/12 04:20:04;;;;;;;11.20;4.50;;;;;;;11.61;74.46;98958.11;104791;1264;73495;-23
2023/09/12 04:22:33;;;;;;;7.70;4.30;;;;;;;11.57;74.76;98957.08;104764;1270;74605;-23
2023/09/12 04:25:01;;;;;;;6.00;3.40;;;;;;;12.19;74.91;98961.58;104626;1273;72747;-23
2023/09/12 04:27:30;;;;;;;10.60;3.90;;;;;;;12.87;72.81;98955.84;104806;1264;61149;-23
2023/09/12 04:29:58;;;;;;;7.10;3.60;;;;;;;13.05;71.76;98957.45;104830;1264;61107;-23
2023/09/12 04:32:29;;;;;;;9.20;4.50;;;;;;;12.98;71.40;98957.98;104743;1270;71890;-23
2023/09/12 04:34:57;;;;;;;9.00;4.50;;;;;;;12.87;71.62;98957.95;104787;1264;74434;-23
2023/09/12 04:37:25;;;;;;;12.90;4.10;;;;;;;12.74;71.45;98960.48;104801;1266;72730;-23
2023/09/12 04:39:53;;;;;;;9.00;4.20;;;;;;;12.58;71.83;98959.34;104751;1267;61055;-23
2023/09/12 04:42:21;;;;;;;11.10;4.30;;;;;;;12.48;72.54;98962.19;104871;1263;61099;-23
2023/09/12 04:44:49;;;;;;;5.50;2.60;;;;;;;12.46;73.10;98965.80;104860;1264;73066;-23
2023/09/12 04:47:17;;;;;;;27.80;5.40;;;;;;;13.00;73.07;98964.88;104785;1271;74525;-23
2023/09/12 04:49:45;;;;;;;10.60;4.10;;;;;;;13.66;71.05;98965.06;104680;1270;72746;-23
2023/09/12 04:52:13;;;;;;;16.70;4.10;;;;;;;13.90;69.69;98963.17;104830;1263;61141;-23
2023/09/12 04:54:41;;;;;;;9.80;3.90;;;;;;;13.95;69.37;98964.89;104597;1271;61190;-23
2023/09/12 04:57:09;;;;;;;9.90;4.60;;;;;;;14.05;69.86;98963.98;104775;1264;73111;-23
2023/09/12 04:59:37;;;;;;;5.60;4.20;;;;;;;14.14;69.75;98966.42;104829;1264;74448;-23
2023/09/12 05:02:05;;;;;;;7.10;4.10;;;;;;;14.22;69.51;98971.77;104656;1264;71475;-23
2023/09/12 05:04:33;;;;;;;6.00;3.70;;;;;;;14.27;69.37;98969.64;104937;1268;61174;-25
2023/09/12 05:07:01;;;;;;;9.00;3.90;;;;;;;14.35;69.12;98968.91;105037;1268;61129;-22
2023/09/12 05:09:29;;;;;;;8.50;4.00;;;;;;;14.42;68.86;98975.16;104810;1261;73100;-23
2023/09/12 05:11:57;;;;;;;12.80;3.80;;;;;;;14.47;68.79;98977.66;104814;1268;76692;-23
2023/09/12 05:14:25;;;;;;;6.60;3.90;;;;;;;14.55;68.47;98976.40;105091;1267;71434;-24
2023/09/12 05:16:53;;;;;;;8.40;3.20;;;;;;;14.65;68.60;98971.91;105089;1264;61818;-24
2023/09/12 05:19:21;;;;;;;10.80;3.40;;;;;;;15.34;68.46;98974.96;105080;1260;61069;-23
2023/09/12 05:21:49;;;;;;;6.90;4.40;;;;;;;16.14;66.52;98976.05;104971;1260;73188;-23
2023/09/12 05:24:17;;;;;;;9.50;4.30;;;;;;;16.48;64.78;98980.17;104977;1267;74506;-23
2023/09/12 05:26:45;;;;;;;14.00;4.50;;;;;;;16.53;64.05;98978.02;105063;1260;72768;-24
2023/09/12 05:29:13;;;;;;;9.70;4.10;;;;;;;16.45;63.90;98980.27;104900;1261;61113;-22
2023/09/12 05:31:41;;;;;;;6.10;3.60;;;;;;;16.44;64.28;98977.20;104865;1261;61079;-23
2023/09/12 05:34:09;;;;;;;8.10;4.40;;;;;;;16.45;63.79;98976.21;105025;1267;72970;-24
2023/09/12 05:36:36;;;;;;;7.00;4.10;;;;;;;16.38;63.49;98974.70;105168;1260;74473;-23
2023/09/12 05:39:05;;;;;;;7.60;3.90;;;;;;;16.36;63.86;98981.80;105151;1260;70520;-22
2023/09/12 05:41:34;;;;;;;6.30;3.80;;;;;;;16.31;63.52;98979.02;105119;1268;61160;-22
2023/09/12 05:44:02;;;;;;;5.70;3.60;;;;;;;16.23;63.47;98978.73;105119;1261;61039;-22
2023/09/12 05:46:31;;;;;;;12.80;4.20;;;;;;;16.15;63.46;98977.48;105061;1265;73095;-23
2023/09/12 05:48:59;;;;;;;6.20;3.70;;;;;;;16.11;63.49;98980.70;105262;1264;72895;-23
2023/09/12 05:51:27;;;;;;;10.50;4.20;;;;;;;16.09;63.48;98982.33;105511;1259;72731;-23
2023/09/12 05:53:54;;;;;;;9.40;3.40;;;;;;;16.07;63.16;98986.19;105465;1263;61170;-23
2023/09/12 05:56:23;;;;;;;10.50;4.80;;;;;;;16.06;62.97;98989.77;105484;1263;61269;-23
2023/09/12 05:58:51;;;;;;;6.90;3.40;;;;;;;16.05;62.63;98989.41;105280;1257;73073;-22
2023/09/12 06:01:18;;;;;;;6.30;3.80;;;;;;;16.05;62.49;98990.65;105283;1256;73285;-25
2023/09/12 06:03:47;;;;;;;8.50;3.60;;;;;;;16.09;62.60;98988.27;105478;1262;72729;-23
2023/09/12 06:06:15;;;;;;;9.10;3.60;;;;;;;16.15;62.54;98987.08;105405;1256;61109;-23
2023/09/12 06:08:44;;;;;;;8.50;3.20;;;;;;;16.17;62.04;98983.17;105427;1262;61204;-23
2023/09/12 06:11:12;;;;;;;6.20;3.60;;;;;;;16.21;61.85;98986.30;105405;1262;73113;-23
2023/09/12 06:13:40;;;;;;;5.20;3.20;;;;;;;16.26;61.55;98986.54;105450;1262;74446;-25
2023/09/12 06:16:08;;;;;;;6.60;3.50;;;;;;;16.32;60.80;98992.52;105510;1262;72825;-23
2023/09/12 06:18:35;;;;;;;14.50;3.80;;;;;;;16.36;60.97;98989.15;105365;1263;61238;-24
2023/09/12 06:21:06;;;;;;;9.20;3.40;;;;;;;16.41;60.82;98994.39;105250;1256;61190;-23
2023/09/12 06:23:34;;;;;;;9.50;4.00;;;;;;;16.49;59.93;98999.45;105480;1262;73099;-22
2023/09/12 06:26:03;;;;;;;7.60;3.20;;;;;;;16.57;59.29;98998.78;105274;1257;74518;-23
2023/09/12 06:28:31;;;;;;;9.00;3.30;;;;;;;16.65;59.02;99004.45;105222;1263;72753;-23
2023/09/12 06:30:59;;;;;;;13.60;3.30;;;;;;;16.73;58.78;99001.52;105437;1262;61179;-23
2023/09/12 06:33:28;;;;;;;11.50;3.10;;;;;;;16.80;58.31;98998.30;105391;1262;61189;-24
2023/09/12 06:44:04;;;;;;;12.50;3.60;;;;;;;17.24;57.73;99004.94;102521;1293;615300;-23
2023/09/12 06:46:35;;;;;;;8.70;3.70;;;;;;;17.40;56.82;99007.41;105067;1267;62555;-23
2023/09/12 06:49:03;;;;;;;10.30;3.60;;;;;;;17.51;57.02;99005.42;104840;1272;61080;-24
2023/09/12 06:51:30;;;;;;;8.90;3.10;;;;;;;17.71;56.89;99006.98;105134;1266;72239;-23
2023/09/12 06:54:03;;;;;;;11.10;3.20;;;;;;;17.90;56.79;99006.09;104825;1267;74986;-23
2023/09/12 06:56:30;;;;;;;8.50;3.40;;;;;;;18.12;56.48;99005.19;102883;1267;3000715;-23
2023/09/12 06:58:59;;;;;;;10.70;3.10;;;;;;;18.32;55.71;99009.59;105238;1263;61072;-24
2023/09/12 07:01:26;;;;;;;11.70;4.10;;;;;;;18.51;54.79;99004.77;105914;1252;61162;-25
2023/09/12 07:03:55;;;;;;;8.30;3.30;;;;;;;18.65;54.82;99006.55;105835;1251;71972;-23
2023/09/12 07:06:23;;;;;;;7.10;3.30;;;;;;;18.91;54.65;99008.33;105988;1251;73225;-24
2023/09/12 07:08:51;;;;;;;7.90;3.50;;;;;;;19.18;53.93;99009.63;105749;1254;73390;-23
2023/09/12 07:11:19;;;;;;;8.40;2.80;;;;;;;19.46;53.59;99009.55;105904;1254;61055;-23
2023/09/12 07:13:46;;;;;;;10.00;3.10;;;;;;;19.77;52.87;99011.70;105729;1252;61097;-23
2023/09/12 07:16:14;;;;;;;4.70;2.40;;;;;;;20.08;51.76;99007.66;105916;1254;73036;-23
2023/09/12 07:18:42;;;;;;;4.90;2.50;;;;;;;20.40;51.29;99013.78;105706;1257;74508;-23
2023/09/12 07:21:11;;;;;;;7.40;2.70;;;;;;;20.71;49.74;99009.64;105663;1253;72429;-23
2023/09/12 07:23:38;;;;;;;6.90;2.80;;;;;;;21.03;48.94;99014.68;105661;1252;61067;-23
2023/09/12 07:26:05;;;;;;;8.50;3.00;;;;;;;21.33;48.28;99015.70;105862;1256;61166;-23
2023/09/12 07:28:32;;;;;;;4.30;2.60;;;;;;;21.64;47.64;99018.61;105918;1254;72753;-22
2023/09/12 07:31:00;;;;;;;8.80;2.70;;;;;;;21.91;46.42;99017.01;105896;1254;73324;-22
2023/09/12 07:33:27;;;;;;;6.90;2.50;;;;;;;22.05;45.02;99010.88;105654;1254;72392;-23
2023/09/12 07:35:55;;;;;;;6.10;3.00;;;;;;;22.25;45.27;99009.53;105409;1254;61186;-23
2023/09/12 07:38:22;;;;;;;8.90;2.50;;;;;;;22.39;43.72;99008.09;105566;1259;61125;-23
2023/09/12 07:40:50;;;;;;;8.40;2.50;;;;;;;22.55;44.42;99009.77;105823;1254;72945;-24
2023/09/12 07:43:17;;;;;;;5.30;2.20;;;;;;;22.52;42.12;99007.48;105781;1256;74407;-24
2023/09/12 07:45:45;;;;;;;5.60;2.60;;;;;;;22.52;42.73;99009.40;105592;1259;74361;-25
2023/09/12 07:48:12;;;;;;;3.70;1.90;;;;;;;22.61;42.75;99010.17;105572;1254;61065;-24
2023/09/12 07:50:39;;;;;;;4.80;2.20;;;;;;;22.77;42.54;99006.69;105670;1254;62076;-23
2023/09/12 07:53:07;;;;;;;8.00;2.30;;;;;;;22.77;40.49;99004.77;105622;1254;72854;-24
2023/09/12 07:55:45;;;;;;;9.90;2.00;;;;;;;22.65;41.11;99008.88;105666;1254;74491;-23
2023/09/12 07:58:14;;;;;;;8.70;1.90;;;;;;;22.69;40.21;99004.30;105690;1254;72501;-22
2023/09/12 08:00:42;;;;;;;2.90;1.60;;;;;;;22.81;40.84;99005.43;105557;1254;61217;-22
2023/09/12 08:03:09;;;;;;;2.50;1.70;;;;;;;22.98;39.97;99008.02;105689;1254;61158;-22
2023/09/12 08:05:38;;;;;;;2.60;2.00;;;;;;;23.08;39.67;99008.98;105716;1254;73047;-24
2023/09/12 08:08:06;;;;;;;5.60;1.80;;;;;;;23.23;39.15;99012.95;105751;1254;74515;-23
2023/09/12 08:10:33;;;;;;;8.70;1.70;;;;;;;23.26;39.36;99009.32;105729;1254;72388;-24
2023/09/12 08:13:01;;;;;;;3.90;2.10;;;;;;;23.47;38.89;99004.70;105827;1257;61710;-23
2023/09/12 08:15:28;;;;;;;3.40;1.70;;;;;;;23.74;38.72;99000.34;105614;1259;61195;-23
2023/09/12 08:17:56;;;;;;;9.00;2.30;;;;;;;23.89;36.73;99002.13;105825;1254;73596;-23
2023/09/12 08:20:23;;;;;;;5.40;1.80;;;;;;;24.02;37.52;99002.29;105742;1254;74357;-23
2023/09/12 08:22:50;;;;;;;4.50;1.50;;;;;;;24.19;37.19;99000.71;105682;1254;72789;-24
2023/09/12 08:25:18;;;;;;;5.20;1.50;;;;;;;24.40;36.76;99002.77;105816;1255;62137;-23
2023/09/12 08:27:45;;;;;;;10.80;1.80;;;;;;;24.66;36.91;99004.15;105384;1254;61173;-24
2023/09/12 08:30:13;;;;;;;4.00;1.90;;;;;;;24.89;36.66;99005.80;105829;1254;73039;-22
2023/09/12 08:32:43;;;;;;;3.50;1.50;;;;;;;25.11;36.06;99003.08;105717;1254;74432;-23
2023/09/12 08:35:15;;;;;;;6.20;2.10;;;;;;;25.27;34.70;99000.48;105858;1254;72363;-23
2023/09/12 08:37:42;;;;;;;3.10;1.40;;;;;;;25.40;34.13;99001.65;105725;1254;61515;-23
2023/09/12 08:40:11;;;;;;;5.40;1.90;;;;;;;25.51;34.40;99005.92;105826;1254;61192;-23
2023/09/12 08:42:40;;;;;;;3.50;1.60;;;;;;;25.65;34.55;99008.16;105601;1260;72853;-23
2023/09/12 08:45:12;;;;;;;4.80;1.50;;;;;;;25.67;33.61;99008.83;105669;1254;73265;-24
2023/09/12 08:47:40;;;;;;;4.00;1.90;;;;;;;25.40;33.50;99007.74;105635;1261;71218;-24
2023/09/12 08:50:13;;;;;;;2.30;1.70;;;;;;;25.19;32.68;99004.20;105715;1254;61119;-24
2023/09/12 08:52:41;;;;;;;16.00;2.50;;;;;;;25.13;32.87;99002.27;105688;1259;61269;-21
2023/09/12 08:55:29;;;;;;;5.00;1.70;;;;;;;25.04;33.06;98999.30;105669;1254;74773;-23
2023/09/12 08:57:56;;;;;;;9.00;1.90;;;;;;;25.28;33.33;99002.55;105680;1254;74442;-23
2023/09/12 09:00:24;;;;;;;10.30;1.80;;;;;;;25.70;33.66;99001.33;105714;1254;74255;-23
2023/09/12 09:02:52;;;;;;;4.10;1.40;;;;;;;26.20;32.40;98991.44;105680;1254;61128;-23
2023/09/12 09:05:22;;;;;;;2.40;1.00;;;;;;;26.55;31.08;98995.48;105539;1261;61783;-23
2023/09/12 09:07:50;;;;;;;3.10;1.40;;;;;;;26.41;30.04;98996.46;105381;1254;71890;-24
2023/09/12 09:10:18;;;;;;;2.80;1.60;;;;;;;26.35;30.81;98997.33;105697;1254;73090;-24
2023/09/12 09:12:51;;;;;;;10.30;1.50;;;;;;;26.68;30.83;98995.30;105696;1254;72527;-22
2023/09/12 09:15:26;;;;;;;3.50;1.60;;;;;;;26.91;30.56;98998.19;105649;1254;61093;-24
2023/09/12 09:17:55;;;;;;;3.50;1.60;;;;;;;27.09;30.38;98998.52;105699;1260;61265;-24
2023/09/12 09:20:22;;;;;;;4.20;1.80;;;;;;;27.28;29.85;98997.10;105511;1254;73122;-23
2023/09/12 09:23:08;;;;;;;7.20;1.70;;;;;;;27.35;29.49;98995.04;105672;1254;76370;-24
2023/09/12 09:25:40;;;;;;;4.00;1.60;;;;;;;27.54;29.04;98990.73;105673;1260;73354;-23
2023/09/12 09:28:17;;;;;;;2.10;1.30;;;;;;;27.68;29.61;98989.84;105727;1254;62150;-23
2023/09/12 09:30:46;;;;;;;4.40;1.30;;;;;;;28.06;28.59;98984.63;105638;1259;62024;-23
2023/09/12 09:33:13;;;;;;;4.00;1.50;;;;;;;28.18;27.68;98989.52;105731;1262;74743;-23
2023/09/12 09:35:41;;;;;;;2.10;1.60;;;;;;;28.49;27.99;98989.50;105524;1259;75044;-23
2023/09/12 09:38:09;;;;;;;2.60;1.50;;;;;;;28.93;27.40;98988.75;105357;1254;74280;-23
2023/09/12 09:40:36;;;;;;;3.30;1.30;;;;;;;28.80;25.74;98982.52;105594;1253;61168;-24
2023/09/12 09:43:04;;;;;;;2.40;1.20;;;;;;;28.33;26.57;98988.35;105701;1260;61894;-24
2023/09/12 09:45:32;;;;;;;3.70;1.80;;;;;;;28.09;26.96;98986.98;105829;1259;74858;-23
2023/09/12 09:48:09;;;;;;;2.30;1.50;;;;;;;28.59;26.32;98981.77;105453;1254;73292;-24
2023/09/12 09:50:37;;;;;;;2.70;1.30;;;;;;;29.01;25.57;98979.05;105577;1260;73316;-23
2023/09/12 09:53:06;;;;;;;4.80;1.50;;;;;;;29.31;25.88;98977.39;105691;1254;61989;-23
2023/09/12 09:55:34;;;;;;;5.40;1.50;;;;;;;29.15;24.75;98982.81;105674;1258;61167;-23
2023/09/12 09:58:08;;;;;;;5.60;1.30;;;;;;;28.72;26.56;98983.46;105500;1254;74617;-23
2023/09/12 10:00:37;;;;;;;6.50;1.80;;;;;;;29.17;25.34;98983.01;105830;1254;74349;-24
2023/09/12 10:03:06;;;;;;;3.90;1.10;;;;;;;28.90;25.79;98984.27;105450;1254;74091;-23
2023/09/12 10:05:33;;;;;;;2.80;1.30;;;;;;;29.45;25.83;98979.54;105497;1254;61204;-24
2023/09/12 10:08:01;;;;;;;7.70;1.40;;;;;;;29.60;24.78;98978.52;105528;1255;61106;-24
2023/09/12 10:10:29;;;;;;;3.80;1.20;;;;;;;29.52;24.82;98974.21;105628;1254;74641;-23
2023/09/12 10:12:57;;;;;;;3.10;1.40;;;;;;;29.95;24.54;98969.36;105675;1254;74456;-23
2023/09/12 10:15:34;;;;;;;3.40;1.30;;;;;;;30.19;24.00;98969.64;105647;1254;72602;-23
2023/09/12 10:18:04;;;;;;;2.40;1.20;;;;;;;30.27;24.32;98969.91;105472;1254;61107;-23
2023/09/12 10:21:11;;;;;;;2.50;1.30;;;;;;;30.82;23.36;98968.33;105532;1259;62138;-24
2023/09/12 10:23:44;;;;;;;3.60;1.30;;;;;;;31.27;22.88;98962.90;105557;1259;66010;-23
2023/09/12 10:26:13;;;;;;;7.00;1.40;;;;;;;31.57;22.85;98968.52;105414;1254;65953;-23
2023/09/12 10:28:41;;;;;;;4.90;1.50;;;;;;;31.80;22.79;98972.49;105702;1259;66024;-23
2023/09/12 10:31:11;;;;;;;3.60;1.20;;;;;;;32.04;22.00;98967.24;105727;1254;61085;-23
2023/09/12 10:33:39;;;;;;;5.30;1.30;;;;;;;32.21;21.87;98968.80;105734;1259;61167;-23
2023/09/12 10:36:08;;;;;;;2.30;1.10;;;;;;;32.22;21.65;98967.63;105855;1257;66337;-23
2023/09/12 10:38:46;;;;;;;3.20;1.10;;;;;;;32.18;21.50;98971.89;105584;1254;66437;-24
2023/09/12 10:41:15;;;;;;;5.80;1.20;;;;;;;31.29;21.43;98967.89;105576;1254;64672;-24
2023/09/12 10:43:47;;;;;;;2.90;1.10;;;;;;;30.08;23.39;98965.95;105418;1259;61157;-24
2023/09/12 10:46:15;;;;;;;3.20;1.40;;;;;;;30.31;23.23;98964.78;105534;1257;62154;-24
2023/09/12 10:48:42;;;;;;;2.50;1.10;;;;;;;30.78;23.11;98964.11;105798;1254;74413;-24
2023/09/12 10:51:10;;;;;;;1.10;1.00;;;;;;;30.66;22.74;98961.19;105833;1254;66358;-24
2023/09/12 10:53:37;;;;;;;7.80;1.60;;;;;;;30.22;22.08;98964.82;105346;1259;72638;-22
2023/09/12 10:56:08;;;;;;;5.20;1.20;;;;;;;30.11;22.53;98958.66;105530;1259;62046;-23
2023/09/12 10:59:04;;;;;;;3.50;1.20;;;;;;;30.12;22.38;98954.23;105512;1259;61103;-23
2023/09/12 11:01:33;;;;;;;3.40;1.10;;;;;;;30.78;22.55;98949.02;105478;1254;73876;-23
2023/09/12 11:04:19;;;;;;;5.40;2.10;;;;;;;31.23;22.01;98948.31;105566;1254;67216;-23
2023/09/12 11:06:50;;;;;;;4.10;1.10;;;;;;;31.42;21.84;98945.67;105815;1254;65328;-23
2023/09/12 11:09:20;;;;;;;3.30;1.10;;;;;;;31.62;21.79;98941.69;105661;1254;61080;-24
2023/09/12 11:11:49;;;;;;;5.30;1.50;;;;;;;31.33;21.24;98939.00;105585;1259;61198;-24
2023/09/12 11:14:17;;;;;;;2.70;1.60;;;;;;;31.04;22.15;98941.17;105325;1263;65749;-24
2023/09/12 11:17:10;;;;;;;7.20;1.40;;;;;;;31.33;22.11;98940.65;105492;1260;65640;-24
2023/09/12 11:19:45;;;;;;;3.70;1.30;;;;;;;31.37;20.70;98939.42;105562;1256;64029;-25
2023/09/12 11:22:25;;;;;;;1.80;0.90;;;;;;;31.39;20.98;98938.62;105545;1254;61024;-23
2023/09/12 11:24:55;;;;;;;2.30;0.90;;;;;;;31.70;20.78;98938.14;105483;1259;61106;-24
2023/09/12 11:27:50;;;;;;;1.70;1.00;;;;;;;31.86;20.25;98936.48;105333;1260;67358;-23
2023/09/12 11:30:23;;;;;;;3.50;1.20;;;;;;;31.54;20.35;98937.90;105622;1259;67156;-24
2023/09/12 11:32:51;;;;;;;2.10;1.10;;;;;;;31.46;20.52;98938.36;105637;1259;64788;-24
2023/09/12 11:35:26;;;;;;;2.20;1.10;;;;;;;31.47;20.88;98938.41;105562;1254;61056;-23
2023/09/12 11:39:24;;;;;;;2.00;1.20;;;;;;;31.76;21.09;98937.89;102656;1290;600390;-23
2023/09/12 11:41:53;;;;;;;1.90;1.10;;;;;;;31.90;20.72;98939.67;104864;1266;61203;-24
2023/09/12 11:44:21;;;;;;;2.80;1.20;;;;;;;31.76;19.70;98932.77;104938;1271;61181;-24
2023/09/12 11:46:50;;;;;;;1.60;1.00;;;;;;;31.61;20.28;98929.02;104785;1267;65947;-23
2023/09/12 11:49:19;;;;;;;4.80;1.50;;;;;;;31.56;20.63;98927.73;104898;1266;65051;-23
2023/09/12 11:51:52;;;;;;;4.40;1.40;;;;;;;31.29;20.01;98920.61;102544;1262;3117266;-24